Time;durP1;ratioP1;P1;durP2;ratioP2;P2;SDS_P1;SDS_P2;PMS_P1;PMS_P2;Temp;Humidity;BMP_temperature;BMP_pressure;BME280_temperature;BME280_humidity;BME280_pressure;Samples;Min_cycle;Max_cycle;Signal;HPM_P1;HPM_P2
2022/04/25 11:54:04;;;;;;;;;;;;;;;;;;;;;
2022/04/25 14:01:58;;;;;;;;;;;;;;;;;;;;;
2022/04/25 14:05:19;;;;;;;;;3.00;2.67;;;;;22.21;28.22;100841.22;4693511;29;45413;-81
2022/04/25 14:08:44;;;;;;;;;;;;;;;;;;;;;
2022/04/25 14:33:26;;;;;;;;;;;;;;;;;;;;;
2022/04/25 14:36:15;;;;;;;;;4.33;4.33;;;;;22.40;26.63;100846.53;4979820;28;72718;-82
2022/04/25 14:42:40;;;;;;;;;4.67;4.67;;;;;22.29;27.13;100836.34;4988046;28;45257;-84
2022/04/25 14:46:41;;;;;;;;;;;;;;;;;;;;;
2022/04/25 15:02:55;;;;;;;;;;;;;;;;;;;;;
2022/04/25 15:18:01;;;;;;;;;4.67;4.67;;;;;22.58;27.30;100821.41;4838297;29;45505;-84
2022/04/25 16:00:50;;;;;;;;;;;;;;;;;;;;;
2022/04/25 16:15:42;;;;;;;;;;;;;;;;;;;;;
2022/04/25 16:18:08;;;;;;;;;6.33;5.00;;;;;21.30;27.00;100833.97;4913081;28;75050;-85
2022/04/25 16:20:34;;;;;;;;;6.25;6.00;;;;;21.21;26.83;100831.75;4962719;28;45391;-77
2022/04/25 16:23:02;;;;;;;;;6.75;5.50;;;;;21.33;27.47;100842.78;4965632;28;45552;-78
2022/04/25 16:25:27;;;;;;;;;6.67;6.67;;;;;21.58;27.14;100847.00;4961536;28;45385;-77
2022/04/25 16:27:53;;;;;;;;;5.00;5.00;;;;;21.65;26.71;100844.88;4964219;28;46563;-77
2022/04/25 16:30:21;;;;;;;;;4.33;4.33;;;;;21.61;27.08;100848.66;4983979;28;45319;-77
2022/04/25 16:32:48;;;;;;;;;7.33;7.00;;;;;21.36;27.05;100852.47;4967826;28;45627;-78
2022/04/25 16:35:13;;;;;;;;;8.33;7.00;;;;;21.09;27.07;100852.81;4975584;28;45483;-77
2022/04/25 16:37:39;;;;;;;;;7.25;7.25;;;;;20.77;27.71;100856.03;4970922;28;46321;-78
2022/04/25 16:40:05;;;;;;;;;8.50;7.00;;;;;20.53;27.78;100847.25;4973671;28;45512;-78
2022/04/25 16:42:31;;;;;;;;;9.50;9.50;;;;;20.38;29.07;100852.34;4969372;28;45393;-78
2022/04/25 16:44:57;;;;;;;;;13.50;11.50;;;;;20.20;29.95;100858.47;4978759;28;45507;-78
2022/04/25 16:47:25;;;;;;;;;13.75;13.25;;;;;19.90;30.79;100856.13;4974105;28;46210;-77
2022/04/25 16:49:51;;;;;;;;;17.25;14.00;;;;;19.68;31.47;100860.59;4972208;28;45408;-77
2022/04/25 16:52:17;;;;;;;;;13.00;10.00;;;;;19.56;31.43;100876.13;4975875;28;45516;-78
2022/04/25 16:54:43;;;;;;;;;8.75;8.75;;;;;19.37;31.78;100867.94;4979188;28;45765;-77
2022/04/25 16:57:08;;;;;;;;;10.50;10.25;;;;;19.30;31.66;100885.16;4972954;28;47713;-76
2022/04/25 16:59:34;;;;;;;;;10.25;10.25;;;;;19.11;32.40;100871.63;4976561;28;45381;-76
2022/04/25 17:02:02;;;;;;;;;6.75;6.75;;;;;20.15;31.82;100884.50;4986056;28;45422;-76
2022/04/25 17:04:28;;;;;;;;;10.50;10.00;;;;;21.54;30.30;100891.81;4985113;28;45533;-76
2022/04/25 17:06:54;;;;;;;;;5.33;5.33;;;;;22.58;27.97;100883.13;4993901;28;47650;-76
2022/04/25 17:09:19;;;;;;;;;9.00;8.00;;;;;23.47;28.19;100894.56;5007502;28;46407;-76
2022/04/25 17:11:44;;;;;;;;;9.00;7.00;;;;;24.03;26.40;100876.22;5004410;28;44797;-76
2022/04/25 17:14:11;;;;;;;;;6.67;6.67;;;;;24.34;26.01;100885.16;5000310;28;45300;-77
2022/04/25 17:16:37;;;;;;;;;8.33;8.00;;;;;24.37;25.20;100904.69;4998596;28;47249;-77
2022/04/25 17:19:02;;;;;;;;;6.33;6.33;;;;;24.12;26.06;100889.13;5002400;28;45498;-77
2022/04/25 17:21:28;;;;;;;;;6.67;6.67;;;;;24.10;26.22;100885.63;5019589;28;45501;-77
2022/04/25 17:23:53;;;;;;;;;4.67;4.67;;;;;24.10;26.13;100893.72;5006858;28;45446;-78
2022/04/25 17:26:19;;;;;;;;;6.25;5.00;;;;;24.00;26.18;100895.19;5015092;28;46131;-77
2022/04/25 17:28:48;;;;;;;;;8.00;6.00;;;;;23.67;25.77;100890.75;4986771;28;45503;-78
